createdAt,value
2017-11-04T00:00:34.675Z,34.50
2017-11-04T00:05:38.027Z,32.70
2017-11-04T00:10:41.274Z,32.70
2017-11-04T00:15:44.564Z,35.53
2017-11-04T00:20:48.547Z,35.60
2017-11-04T00:25:51.924Z,33.47
2017-11-04T00:30:55.191Z,35.50
2017-11-04T00:35:58.364Z,35.20
2017-11-04T00:41:01.547Z,30.77
2017-11-04T00:46:04.751Z,33.53
2017-11-04T00:51:07.931Z,35.40
2017-11-04T00:56:11.976Z,38.50
2017-11-04T01:01:15.185Z,33.03
2017-11-04T01:06:18.412Z,35.13
2017-11-04T01:11:21.595Z,36.50
2017-11-04T01:16:24.778Z,32.67
2017-11-04T01:21:28.729Z,32.30
2017-11-04T01:26:32.033Z,33.60
2017-11-04T01:31:35.972Z,32.40
2017-11-04T01:36:39.162Z,34.10
2017-11-04T01:41:42.345Z,33.03
2017-11-04T01:46:46.292Z,36.37
2017-11-04T01:51:50.261Z,38.07
2017-11-04T01:56:53.435Z,35.83
2017-11-04T02:01:56.581Z,32.47
2017-11-04T02:06:59.746Z,37.13
2017-11-04T02:12:02.921Z,33.47
2017-11-04T02:17:06.884Z,33.83
2017-11-04T02:22:10.141Z,33.73
2017-11-04T02:27:14.083Z,34.63
2017-11-04T02:32:18.001Z,38.97
2017-11-04T02:37:21.950Z,34.40
2017-11-04T02:42:25.118Z,31.57
2017-11-04T02:47:28.297Z,33.43
2017-11-04T02:52:31.470Z,37.00
2017-11-04T02:57:34.644Z,36.37
2017-11-04T03:02:38.603Z,29.87
2017-11-04T03:07:41.794Z,37.20
2017-11-04T03:12:44.998Z,35.20
2017-11-04T03:17:48.206Z,40.30
2017-11-04T03:22:51.390Z,37.10
2017-11-04T03:27:55.410Z,34.70
2017-11-04T03:32:58.579Z,33.13
2017-11-04T03:38:01.762Z,35.40
2017-11-04T03:43:04.958Z,33.50
2017-11-04T03:48:08.137Z,36.80
2017-11-04T03:53:12.104Z,32.07
2017-11-04T03:58:15.264Z,30.13
2017-11-04T04:03:19.204Z,31.47
2017-11-04T04:08:23.159Z,29.03
2017-11-04T04:13:26.446Z,27.67
2017-11-04T04:18:29.642Z,30.00
2017-11-04T04:23:33.021Z,27.77
2017-11-04T04:28:36.221Z,27.73
2017-11-04T04:33:39.398Z,28.77
2017-11-04T04:38:42.564Z,28.67
2017-11-04T04:43:46.511Z,28.87
2017-11-04T04:48:49.802Z,28.17
2017-11-04T04:53:53.747Z,30.10
2017-11-04T04:58:56.954Z,29.23
2017-11-04T05:04:00.153Z,28.73
2017-11-04T05:09:03.307Z,29.47
2017-11-04T05:14:06.484Z,27.30
2017-11-04T05:19:09.689Z,26.67
2017-11-04T05:24:12.949Z,28.00
2017-11-04T05:29:16.904Z,26.00
2017-11-04T05:34:20.065Z,28.23
2017-11-04T05:39:23.233Z,28.60
2017-11-04T05:44:26.385Z,29.03
2017-11-04T05:49:29.542Z,31.23
2017-11-04T05:54:32.799Z,31.13
2017-11-04T05:59:36.037Z,30.83
2017-11-04T06:04:39.209Z,33.47
2017-11-04T06:09:42.482Z,30.30
2017-11-04T06:14:45.667Z,33.90
2017-11-04T06:19:48.848Z,32.27
2017-11-04T06:24:52.770Z,35.50
2017-11-04T06:29:56.722Z,35.23
2017-11-04T06:34:59.881Z,30.50
2017-11-04T06:40:03.823Z,32.63
2017-11-04T06:45:07.970Z,34.77
2017-11-04T06:50:11.178Z,35.03
2017-11-04T06:55:14.458Z,32.87
2017-11-04T07:00:18.527Z,32.00
2017-11-04T07:05:21.698Z,30.87
2017-11-04T07:10:25.646Z,35.63
2017-11-04T07:15:28.843Z,32.90
2017-11-04T07:20:32.051Z,32.80
2017-11-04T07:25:35.232Z,33.70
2017-11-04T07:30:39.199Z,33.33
2017-11-04T07:35:42.496Z,32.83
2017-11-04T07:40:45.662Z,32.07
2017-11-04T07:45:48.851Z,31.87
2017-11-04T07:50:52.066Z,32.43
2017-11-04T07:55:55.226Z,32.40
2017-11-04T08:00:58.384Z,29.03
2017-11-04T08:06:02.376Z,32.37
2017-11-04T08:11:05.589Z,32.07
2017-11-04T08:16:08.804Z,33.80
2017-11-04T08:21:12.050Z,32.20
2017-11-04T08:26:16.007Z,31.63
2017-11-04T08:31:19.198Z,33.90
2017-11-04T08:36:22.475Z,33.30
2017-11-04T08:41:25.644Z,30.73
2017-11-04T08:46:28.828Z,33.53
2017-11-04T08:51:34.458Z,35.07
2017-11-04T08:56:38.402Z,34.87
2017-11-04T09:01:41.589Z,33.97
2017-11-04T09:06:45.541Z,34.40
2017-11-04T09:11:48.758Z,35.93
2017-11-04T09:16:51.943Z,34.93
2017-11-04T09:21:55.138Z,36.07
2017-11-04T09:26:59.091Z,38.13
2017-11-04T09:32:02.360Z,39.53
2017-11-04T09:37:05.583Z,38.57
2017-11-04T09:42:08.975Z,39.83
2017-11-04T09:47:12.171Z,41.87
2017-11-04T09:52:15.371Z,40.73
2017-11-04T09:57:18.626Z,39.85
2017-11-04T10:02:21.811Z,40.00
2017-11-04T10:07:25.759Z,39.70
2017-11-04T10:12:28.931Z,39.77
2017-11-04T10:17:32.901Z,44.23
2017-11-04T10:22:36.069Z,41.93
2017-11-04T10:27:40.084Z,42.90
2017-11-04T10:32:44.095Z,40.27
2017-11-04T10:37:47.293Z,41.87
2017-11-04T10:42:50.727Z,41.30
2017-11-04T10:47:53.992Z,38.53
2017-11-04T10:52:57.355Z,41.17
2017-11-04T10:58:01.406Z,43.73
2017-11-04T11:03:04.676Z,43.70
2017-11-04T11:08:07.858Z,47.85
2017-11-04T11:13:11.052Z,45.43
2017-11-04T11:18:14.247Z,43.23
2017-11-04T11:23:17.445Z,42.03
2017-11-04T11:28:20.644Z,40.67
2017-11-04T11:33:23.932Z,38.77
2017-11-04T11:38:28.071Z,42.70
2017-11-04T11:43:31.270Z,43.93
2017-11-04T11:48:34.474Z,41.20
2017-11-04T11:53:37.757Z,42.60
2017-11-04T11:58:41.115Z,41.90
2017-11-04T12:03:44.341Z,42.17
2017-11-04T12:08:47.530Z,43.50
2017-11-04T12:13:50.754Z,40.03
2017-11-04T12:18:53.941Z,44.95
2017-11-04T12:23:57.165Z,39.00
2017-11-04T12:29:00.363Z,42.23
2017-11-04T12:34:03.715Z,40.00
2017-11-04T12:39:06.944Z,41.43
2017-11-04T12:44:10.933Z,43.87
2017-11-04T12:49:14.165Z,39.43
2017-11-04T12:54:17.382Z,40.80
2017-11-04T12:59:21.368Z,38.10
2017-11-04T13:04:24.575Z,36.17
2017-11-04T13:09:27.804Z,36.33
2017-11-04T13:14:31.246Z,35.47
2017-11-04T13:19:35.232Z,36.37
2017-11-04T13:24:38.438Z,36.67
2017-11-04T13:29:41.650Z,34.07
2017-11-04T13:34:44.847Z,34.13
2017-11-04T13:39:48.057Z,34.40
2017-11-04T13:44:51.274Z,34.53
2017-11-04T13:49:55.235Z,34.30
2017-11-04T13:54:58.453Z,31.90
2017-11-04T14:00:01.683Z,33.27
2017-11-04T14:05:04.860Z,35.27
2017-11-04T14:10:08.040Z,36.60
2017-11-04T14:15:11.196Z,34.30
2017-11-04T14:20:14.377Z,37.63
2017-11-04T14:25:17.556Z,35.73
2017-11-04T14:30:21.526Z,36.67
2017-11-04T14:35:24.740Z,36.97
2017-11-04T14:40:27.922Z,37.00
2017-11-04T14:45:31.216Z,35.80
2017-11-04T14:50:34.399Z,39.47
2017-11-04T14:55:38.375Z,40.33
2017-11-04T15:00:41.556Z,40.60
2017-11-04T15:05:44.734Z,40.80
2017-11-04T15:10:48.695Z,39.30
2017-11-04T15:15:51.900Z,41.33
2017-11-04T15:20:55.204Z,41.37
2017-11-04T15:25:58.416Z,40.30
2017-11-04T15:31:01.779Z,42.20
2017-11-04T15:36:04.981Z,42.10
2017-11-04T15:41:08.194Z,41.43
2017-11-04T15:46:11.653Z,41.80
2017-11-04T15:51:15.015Z,45.83
2017-11-04T15:56:18.217Z,42.23
2017-11-04T16:01:21.373Z,39.33
2017-11-04T16:06:24.539Z,42.30
2017-11-04T16:11:28.486Z,41.07
2017-11-04T16:16:31.677Z,46.10
2017-11-04T16:21:35.853Z,39.13
2017-11-04T16:26:39.187Z,36.67
2017-11-04T16:31:42.364Z,44.20
2017-11-04T16:36:45.545Z,49.10
2017-11-04T16:41:49.244Z,49.07
2017-11-04T16:46:53.176Z,46.03
2017-11-04T16:51:56.415Z,48.33
2017-11-04T16:56:59.794Z,48.60
2017-11-04T17:02:03.793Z,43.77
2017-11-04T17:07:06.992Z,44.20
2017-11-04T17:12:10.190Z,43.63
2017-11-04T17:17:13.366Z,38.73
2017-11-04T17:22:16.560Z,42.33
2017-11-04T17:27:19.730Z,41.43
2017-11-04T17:32:22.923Z,47.17
2017-11-04T17:37:26.106Z,48.90
2017-11-04T17:42:29.352Z,43.50
2017-11-04T17:47:32.548Z,48.90
2017-11-04T17:52:35.745Z,48.83
2017-11-04T17:57:38.938Z,49.10
2017-11-04T18:02:42.193Z,55.53
2017-11-04T18:07:46.167Z,63.13
2017-11-04T18:12:49.465Z,58.57
2017-11-04T18:17:52.662Z,53.00
2017-11-04T18:22:55.870Z,49.83
2017-11-04T18:27:59.039Z,52.77
2017-11-04T18:33:02.985Z,54.23
2017-11-04T18:38:06.344Z,54.30
2017-11-04T18:43:10.351Z,54.30
2017-11-04T18:48:13.754Z,50.07
2017-11-04T18:53:16.964Z,46.17
2017-11-04T18:58:20.174Z,50.80
2017-11-04T19:03:23.359Z,49.27
2017-11-04T19:08:26.547Z,52.13
2017-11-04T19:13:29.747Z,48.20
2017-11-04T19:18:32.958Z,52.27
2017-11-04T19:23:36.200Z,53.23
2017-11-04T19:28:39.647Z,43.70
2017-11-04T19:33:42.854Z,56.80
2017-11-04T19:38:46.432Z,50.13
2017-11-04T19:43:50.930Z,50.67
2017-11-04T19:48:54.179Z,50.43
2017-11-04T19:53:57.390Z,46.30
2017-11-04T19:59:00.744Z,44.40
2017-11-04T20:04:03.922Z,43.43
2017-11-04T20:09:07.225Z,42.03
2017-11-04T20:14:10.423Z,46.60
2017-11-04T20:19:13.718Z,46.30
2017-11-04T20:24:16.913Z,44.77
2017-11-04T20:29:20.208Z,44.60
2017-11-04T20:34:23.394Z,42.03
2017-11-04T20:39:27.359Z,48.57
2017-11-04T20:44:30.528Z,44.23
2017-11-04T20:49:34.665Z,39.43
2017-11-04T20:54:38.625Z,46.27
2017-11-04T20:59:41.926Z,41.25
2017-11-04T21:04:45.247Z,49.03
2017-11-04T21:09:48.487Z,50.60
2017-11-04T21:14:51.853Z,51.10
2017-11-04T21:19:55.085Z,48.10
2017-11-04T21:24:58.395Z,53.57
2017-11-04T21:30:01.576Z,48.70
2017-11-04T21:35:04.748Z,42.93
2017-11-04T21:40:07.930Z,43.00
2017-11-04T21:45:11.108Z,46.17
2017-11-04T21:50:14.361Z,48.60
2017-11-04T21:55:18.302Z,48.90
2017-11-04T22:00:21.544Z,58.40
2017-11-04T22:05:24.728Z,49.70
2017-11-04T22:10:27.991Z,50.30
2017-11-04T22:15:32.003Z,55.57
2017-11-04T22:20:35.208Z,62.70
2017-11-04T22:25:38.564Z,61.97
2017-11-04T22:30:41.910Z,57.93
2017-11-04T22:35:45.106Z,55.80
2017-11-04T22:40:48.296Z,57.63
2017-11-04T22:45:51.526Z,56.93
2017-11-04T22:50:54.751Z,48.67
2017-11-04T22:55:57.965Z,48.10
2017-11-04T23:01:01.153Z,55.12
2017-11-04T23:06:04.368Z,50.37
2017-11-04T23:11:07.539Z,50.10
2017-11-04T23:16:10.738Z,47.57
2017-11-04T23:21:13.934Z,52.40
2017-11-04T23:26:17.119Z,53.67
2017-11-04T23:31:21.096Z,45.17
2017-11-04T23:36:24.279Z,43.70
2017-11-04T23:41:27.479Z,42.13
2017-11-04T23:46:30.683Z,41.67
2017-11-04T23:51:33.955Z,38.77
2017-11-04T23:56:37.259Z,44.07
